createdAt,value
2018-08-03T05:05:13.883Z,95735.80
2018-08-03T05:10:17.977Z,95739.94
2018-08-03T05:15:21.493Z,95740.36
2018-08-03T05:20:24.796Z,95732.97
2018-08-03T05:25:28.139Z,95730.53
2018-08-03T05:30:31.480Z,95729.48
2018-08-03T05:35:36.806Z,95725.41
2018-08-03T05:40:40.145Z,95728.75
2018-08-03T05:45:44.257Z,95727.20
2018-08-03T05:50:47.591Z,95730.95
2018-08-03T05:56:08.073Z,95728.73
2018-08-03T06:01:11.407Z,95731.23
2018-08-03T06:06:15.513Z,95739.26
2018-08-03T06:11:18.850Z,95738.58
2018-08-03T06:16:54.977Z,95746.78
2018-08-03T06:21:58.506Z,95741.61
2018-08-03T06:27:01.877Z,95738.14
2018-08-03T06:32:05.255Z,95741.27
2018-08-03T06:37:08.594Z,95739.48
2018-08-03T06:42:12.702Z,95741.55
2018-08-03T06:47:16.036Z,95740.83
2018-08-03T06:52:20.143Z,95744.77
2018-08-03T06:57:23.491Z,95742.92
2018-08-03T07:02:26.829Z,95734.36
2018-08-03T07:07:30.162Z,95735.59
2018-08-03T07:12:33.497Z,95730.85
2018-08-03T07:17:36.828Z,95719.40
2018-08-03T07:22:40.927Z,95725.13
2018-08-03T07:27:44.837Z,95722.42
2018-08-03T07:32:48.170Z,95726.48
2018-08-03T07:37:51.506Z,95727.17
2018-08-03T07:42:55.670Z,95729.34
2018-08-03T07:47:58.970Z,95730.93
2018-08-03T07:53:02.306Z,95726.72
2018-08-03T07:58:05.648Z,95724.05
2018-08-03T08:03:09.023Z,95729.48
2018-08-03T08:08:12.350Z,95725.87
2018-08-03T08:13:15.691Z,95726.80
2018-08-03T08:18:19.048Z,95735.13
2018-08-03T08:23:22.387Z,95727.42
2018-08-03T08:28:25.710Z,95727.33
2018-08-03T08:33:29.038Z,95719.02
2018-08-03T08:38:32.418Z,95718.55
2018-08-03T08:43:35.816Z,95726.78
2018-08-03T08:48:39.116Z,95726.99
2018-08-03T08:53:42.453Z,95726.64
2018-08-03T08:58:45.791Z,95725.63
2018-08-03T09:03:49.134Z,95730.13
2018-08-03T09:08:52.471Z,95722.61
2018-08-03T09:13:55.809Z,95721.12
2018-08-03T09:18:59.134Z,95720.45
2018-08-03T09:24:02.477Z,95724.72
2018-08-03T09:29:06.578Z,95716.25
2018-08-03T09:34:09.915Z,95714.03
2018-08-03T09:39:13.259Z,95704.67
2018-08-03T09:44:16.594Z,95702.86
2018-08-03T09:49:20.033Z,95695.20
2018-08-03T09:54:23.303Z,95689.67
2018-08-03T09:59:26.649Z,95684.80
2018-08-03T10:04:29.987Z,95681.98
2018-08-03T10:09:33.331Z,95670.02
2018-08-03T10:14:36.678Z,95669.52
2018-08-03T10:19:40.015Z,95672.69
2018-08-03T10:24:43.939Z,95660.52
2018-08-03T10:29:47.471Z,95668.86
2018-08-03T10:34:50.754Z,95666.42
2018-08-03T10:39:56.054Z,95654.88
2018-08-03T10:44:59.449Z,95654.41
2018-08-03T10:50:02.803Z,95653.45
2018-08-03T10:55:06.143Z,95656.37
2018-08-03T11:00:09.487Z,95654.47
2018-08-03T11:05:12.834Z,95650.08
2018-08-03T11:10:16.162Z,95635.96
2018-08-03T11:15:19.503Z,95632.04
2018-08-03T11:20:22.842Z,95625.06
2018-08-03T11:25:26.179Z,95617.42
2018-08-03T11:30:30.281Z,95618.41
2018-08-03T11:35:33.618Z,95610.30
2018-08-03T11:40:37.726Z,95611.88
2018-08-03T11:45:41.054Z,95606.36
2018-08-03T11:50:45.187Z,95593.93
2018-08-03T11:55:49.281Z,95601.20
2018-08-03T12:00:52.681Z,95601.16
2018-08-03T12:05:56.726Z,95600.05
2018-08-03T12:11:00.072Z,95593.23
2018-08-03T12:16:04.177Z,95594.09
2018-08-03T12:21:07.508Z,95589.47
2018-08-03T12:26:10.847Z,95583.16
2018-08-03T12:31:14.217Z,95578.59
2018-08-03T12:36:17.538Z,95577.66
2018-08-03T12:41:20.875Z,95574.94
2018-08-03T12:46:24.202Z,95572.37
2018-08-03T12:51:27.532Z,95569.72
2018-08-03T12:56:30.874Z,95567.73
2018-08-03T13:01:34.986Z,95567.44
2018-08-03T13:06:38.311Z,95568.99
2018-08-03T13:11:41.641Z,95571.81
2018-08-03T13:16:44.989Z,95559.23
2018-08-03T13:21:48.322Z,95558.43
2018-08-03T13:26:51.656Z,95554.47
2018-08-03T13:31:55.022Z,95544.05
2018-08-03T13:36:58.350Z,95538.12
2018-08-03T13:42:01.688Z,95532.69
2018-08-03T13:47:05.014Z,95532.58
2018-08-03T13:52:08.344Z,95522.86
2018-08-03T13:57:11.692Z,95524.21
2018-08-03T14:02:15.038Z,95511.72
2018-08-03T14:07:18.397Z,95501.48
2018-08-03T14:12:22.504Z,95508.36
2018-08-03T14:17:25.832Z,95503.58
2018-08-03T14:22:29.930Z,95491.63
2018-08-03T14:27:33.274Z,95491.18
2018-08-03T14:32:36.605Z,95480.55
2018-08-03T14:37:40.711Z,95478.38
2018-08-03T14:42:44.053Z,95469.38
2018-08-03T14:47:47.382Z,95463.56
2018-08-03T14:52:50.718Z,95467.50
2018-08-03T14:57:54.053Z,95467.36
2018-08-03T15:02:57.390Z,95465.80
2018-08-03T15:08:01.489Z,95458.47
2018-08-03T15:13:04.835Z,95454.35
2018-08-03T15:18:08.966Z,95454.95
2018-08-03T15:23:13.067Z,95452.63
2018-08-03T15:28:16.407Z,95449.57
2018-08-03T15:33:20.502Z,95453.28
2018-08-03T15:38:23.847Z,95452.73
2018-08-03T15:43:27.950Z,95445.30
2018-08-03T15:48:31.274Z,95446.37
2018-08-03T15:53:34.603Z,95444.52
2018-08-03T15:58:38.752Z,95442.09
2018-08-03T16:03:42.043Z,95440.12
2018-08-03T16:08:46.132Z,95430.09
2018-08-03T16:13:49.458Z,95420.28
2018-08-03T16:18:52.841Z,95414.80
2018-08-03T16:23:56.906Z,95413.30
2018-08-03T16:29:00.234Z,95418.75
2018-08-03T16:34:03.765Z,95410.20
2018-08-03T16:39:07.881Z,95416.45
2018-08-03T16:44:11.974Z,95405.19
2018-08-03T16:49:15.314Z,95402.55
2018-08-03T16:54:18.989Z,95395.98
2018-08-03T16:59:22.819Z,95395.69
2018-08-03T17:04:26.522Z,95400.88
2018-08-03T17:09:30.150Z,95398.33
2018-08-03T17:14:33.960Z,95389.79
2018-08-03T17:19:37.561Z,95386.87
2018-08-03T17:24:42.680Z,95380.91
2018-08-03T17:29:46.561Z,95383.44
2018-08-03T17:34:50.304Z,95394.20
2018-08-03T17:39:53.892Z,95388.52
2018-08-03T17:44:57.587Z,95389.84
2018-08-03T17:50:01.230Z,95387.41
2018-08-03T17:55:04.754Z,95386.95
2018-08-03T18:00:08.345Z,95388.16
2018-08-03T18:05:12.449Z,95386.73
2018-08-03T18:10:15.787Z,95391.83
2018-08-03T18:15:19.882Z,95387.09
2018-08-03T18:20:23.222Z,95399.03
2018-08-03T18:25:33.974Z,95404.55
2018-08-03T18:30:37.308Z,95409.42
2018-08-03T18:35:40.642Z,95412.38
2018-08-03T18:40:44.756Z,95419.92
2018-08-03T18:45:58.413Z,95420.55
2018-08-03T18:51:01.766Z,95431.85
2018-08-03T18:56:05.099Z,95426.84
2018-08-03T19:01:08.441Z,95426.94
2018-08-03T19:06:11.771Z,95438.23
2018-08-03T19:11:15.251Z,95443.80
2018-08-03T19:16:18.585Z,95447.54
2018-08-03T19:21:22.331Z,95456.38
2018-08-03T19:26:26.449Z,95460.95
2018-08-03T19:31:31.787Z,95464.75
2018-08-03T19:36:49.268Z,95466.48
2018-08-03T19:41:54.630Z,95466.60
2018-08-03T19:46:59.107Z,95464.34
2018-08-03T19:52:03.477Z,95465.94
2018-08-03T19:57:08.294Z,95469.72
2018-08-03T20:02:15.131Z,95470.64
2018-08-03T20:07:21.358Z,95463.88
2018-08-03T20:12:25.259Z,95465.22
2018-08-03T20:17:29.711Z,95465.46
2018-08-03T20:22:44.367Z,95463.77
2018-08-03T20:27:48.455Z,95463.47
2018-08-03T20:32:51.982Z,95469.59
2018-08-03T20:37:55.479Z,95468.86
2018-08-03T20:42:58.798Z,95464.62
2018-08-03T20:48:02.172Z,95462.59
2018-08-03T20:53:05.517Z,95460.17
2018-08-03T20:58:08.847Z,95456.26
2018-08-03T21:03:12.182Z,95457.02
2018-08-03T21:08:15.515Z,95453.89
2018-08-03T21:13:18.852Z,95460.74
2018-08-03T21:18:22.201Z,95457.39
2018-08-03T21:23:25.559Z,95454.09
2018-08-03T21:28:28.905Z,95451.02
2018-08-03T21:33:32.242Z,95452.12
2018-08-03T21:38:35.569Z,95452.18
2018-08-03T21:43:38.900Z,95459.73
2018-08-03T21:48:43.015Z,95455.09
2018-08-03T21:53:47.113Z,95469.14
2018-08-03T21:58:50.455Z,95471.27
2018-08-03T22:03:53.916Z,95462.59
2018-08-03T22:08:57.242Z,95458.72
2018-08-03T22:14:00.564Z,95469.28
2018-08-03T22:19:03.897Z,95459.42
2018-08-03T22:24:07.274Z,95469.84
2018-08-03T22:29:10.574Z,95465.10
